Time;durP1;ratioP1;P1;durP2;ratioP2;P2;SDS_P1;SDS_P2;PMS_P1;PMS_P2;Temp;Humidity;BMP_temperature;BMP_pressure;BME280_temperature;BME280_humidity;BME280_pressure;Samples;Min_cycle;Max_cycle;Signal;HPM_P1;HPM_P2
2022/03/23 00:03:35;;;;;;;87.60;42.77;;;11.50;70.60;;;;;;10333282;28;20237;-82
2022/03/23 00:08:37;;;;;;;76.20;41.47;;;11.50;67.80;;;;;;10314774;28;20248;-83
2022/03/23 00:13:40;;;;;;;42.73;22.73;;;10.50;72.50;;;;;;10355579;28;20228;-82
2022/03/23 00:18:42;;;;;;;40.50;24.60;;;11.00;71.80;;;;;;10342659;28;20224;-82
2022/03/23 00:23:45;;;;;;;89.83;45.87;;;11.20;70.60;;;;;;10298446;28;20232;-82
2022/03/23 00:28:48;;;;;;;49.30;25.77;;;11.20;67.50;;;;;;10314050;28;20268;-82
2022/03/23 00:33:51;;;;;;;44.33;25.97;;;10.80;71.60;;;;;;10331158;28;20225;-82
2022/03/23 00:38:54;;;;;;;46.17;26.30;;;10.80;70.50;;;;;;10313980;28;20240;-82
2022/03/23 00:43:56;;;;;;;48.67;27.37;;;11.40;69.80;;;;;;10338222;28;20685;-83
2022/03/23 00:49:00;;;;;;;41.43;23.60;;;11.50;69.20;;;;;;10334968;28;20666;-82
2022/03/23 00:54:03;;;;;;;38.63;22.53;;;11.50;68.70;;;;;;10312604;28;20237;-82
2022/03/23 00:59:07;;;;;;;49.77;30.13;;;11.60;68.60;;;;;;10313157;28;20229;-82
2022/03/23 01:04:10;;;;;;;38.67;23.00;;;11.70;67.40;;;;;;10312749;28;20236;-82
2022/03/23 01:09:16;;;;;;;50.03;27.73;;;11.40;67.60;;;;;;10330156;28;20680;-82
2022/03/23 01:14:23;;;;;;;43.30;26.57;;;11.40;67.70;;;;;;10312626;28;20713;-83
2022/03/23 01:19:27;;;;;;;53.70;31.27;;;11.20;68.60;;;;;;10328724;28;20240;-83
2022/03/23 01:24:30;;;;;;;41.90;26.37;;;11.50;67.60;;;;;;10312211;28;20268;-82
2022/03/23 01:29:34;;;;;;;48.53;29.13;;;11.80;67.40;;;;;;10329595;28;20303;-83
2022/03/23 01:34:37;;;;;;;52.53;31.00;;;11.50;67.40;;;;;;10311699;28;20287;-83
2022/03/23 01:39:40;;;;;;;41.13;24.30;;;11.30;67.60;;;;;;10311072;28;20197;-83
2022/03/23 01:44:44;;;;;;;40.43;22.63;;;11.30;68.50;;;;;;10328550;28;20252;-83
2022/03/23 01:49:51;;;;;;;51.83;31.20;;;11.70;67.60;;;;;;10328459;28;20740;-83
2022/03/23 01:54:53;;;;;;;46.33;27.67;;;11.40;67.40;;;;;;10326715;28;20287;-83
2022/03/23 01:59:56;;;;;;;49.47;29.90;;;11.20;68.20;;;;;;10328260;28;20290;-83
2022/03/23 02:05:01;;;;;;;40.23;25.37;;;11.60;67.00;;;;;;10309005;28;20248;-82
2022/03/23 02:10:07;;;;;;;37.87;24.30;;;12.00;66.40;;;;;;10310618;28;20543;-83
2022/03/23 02:15:36;;;;;;;67.40;34.73;;;11.90;65.70;;;;;;10325015;28;20609;-83
2022/03/23 02:20:38;;;;;;;71.10;41.20;;;11.40;65.70;;;;;;10326884;28;20229;-83
2022/03/23 02:25:47;;;;;;;38.93;24.37;;;11.10;66.00;;;;;;10270098;28;20253;-83
2022/03/23 02:30:49;;;;;;;45.33;28.10;;;11.10;68.70;;;;;;10286332;28;20252;-83
2022/03/23 02:35:52;;;;;;;52.77;32.07;;;11.50;66.50;;;;;;10286923;28;20623;-83
2022/03/23 02:40:55;;;;;;;46.43;28.50;;;11.50;65.60;;;;;;10308666;28;20236;-83
2022/03/23 02:45:57;;;;;;;38.83;23.27;;;11.60;66.30;;;;;;10326924;28;20299;-83
2022/03/23 02:51:00;;;;;;;46.67;29.00;;;11.80;66.80;;;;;;10326046;28;20244;-83
2022/03/23 03:01:54;;;;;;;48.43;28.73;;;11.10;66.80;;;;;;10324594;28;20259;-83
2022/03/23 03:06:58;;;;;;;53.23;30.23;;;11.60;66.30;;;;;;10326059;28;20291;-82
2022/03/23 03:12:01;;;;;;;52.77;31.27;;;11.30;66.10;;;;;;10308365;28;20791;-83
2022/03/23 03:17:05;;;;;;;37.57;25.63;;;11.30;66.30;;;;;;10326208;28;20311;-83
2022/03/23 03:22:09;;;;;;;37.87;25.17;;;11.80;65.90;;;;;;10309299;28;20232;-83
2022/03/23 03:27:11;;;;;;;44.87;27.37;;;11.70;65.70;;;;;;10326267;28;20265;-83
2022/03/23 03:32:13;;;;;;;44.97;27.00;;;11.80;65.40;;;;;;10310216;28;20248;-83
2022/03/23 03:37:16;;;;;;;57.67;30.67;;;11.90;65.00;;;;;;10316191;28;20229;-83
2022/03/23 03:42:19;;;;;;;40.10;23.53;;;11.80;64.60;;;;;;10315581;28;20949;-82
2022/03/23 03:47:22;;;;;;;51.83;30.87;;;12.50;64.00;;;;;;10333338;28;20287;-82
2022/03/23 03:52:24;;;;;;;50.30;27.67;;;12.90;62.30;;;;;;10332216;28;20307;-83
2022/03/23 03:57:27;;;;;;;57.87;32.33;;;11.90;64.20;;;;;;10332380;28;20216;-83
2022/03/23 04:02:29;;;;;;;46.87;29.67;;;12.00;63.80;;;;;;10314326;28;20232;-83
2022/03/23 04:07:34;;;;;;;43.87;27.37;;;11.80;64.00;;;;;;10343220;28;20240;-83
2022/03/23 04:12:36;;;;;;;63.17;36.00;;;11.60;64.60;;;;;;10366839;28;20314;-82
2022/03/23 04:17:39;;;;;;;48.80;28.67;;;11.50;64.50;;;;;;10371916;28;20272;-82
2022/03/23 04:22:42;;;;;;;53.90;32.00;;;11.70;64.80;;;;;;10364279;28;20290;-83
2022/03/23 04:27:49;;;;;;;40.93;25.70;;;11.90;64.70;;;;;;10368278;28;20807;-82
2022/03/23 04:32:52;;;;;;;49.57;29.97;;;12.30;63.50;;;;;;10365430;28;20702;-82
2022/03/23 04:37:55;;;;;;;60.00;36.50;;;11.70;63.40;;;;;;10350142;28;20674;-82
2022/03/23 04:42:58;;;;;;;40.20;25.43;;;11.30;63.90;;;;;;10329746;28;20224;-82
2022/03/23 04:48:01;;;;;;;54.13;29.80;;;11.60;65.40;;;;;;10329798;28;20667;-83
2022/03/23 04:53:04;;;;;;;44.53;27.87;;;12.00;63.80;;;;;;10311903;28;20735;-82
2022/03/23 04:58:06;;;;;;;88.53;46.73;;;11.50;64.00;;;;;;10329851;28;20287;-82
2022/03/23 05:03:10;;;;;;;38.83;24.47;;;11.20;61.70;;;;;;10326160;28;20225;-85
2022/03/23 05:08:13;;;;;;;77.30;44.60;;;11.90;65.40;;;;;;10311811;28;20213;-82
2022/03/23 05:13:16;;;;;;;91.17;52.20;;;13.40;55.20;;;;;;10329107;28;20283;-82
2022/03/23 05:18:18;;;;;;;78.17;44.60;;;13.00;54.10;;;;;;10330029;28;20225;-82
2022/03/23 05:23:21;;;;;;;89.37;49.93;;;12.90;55.60;;;;;;10311125;28;20263;-82
2022/03/23 05:28:23;;;;;;;75.33;42.10;;;12.20;55.30;;;;;;10312308;28;20260;-82
2022/03/23 05:33:26;;;;;;;72.13;40.93;;;12.60;56.60;;;;;;10311274;28;20257;-82
2022/03/23 05:38:29;;;;;;;70.50;39.93;;;13.00;55.90;;;;;;10328877;28;20228;-82
2022/03/23 05:43:32;;;;;;;74.07;42.47;;;13.00;55.80;;;;;;10328647;28;20252;-82
2022/03/23 05:48:34;;;;;;;70.33;41.73;;;12.80;56.20;;;;;;10328468;28;20228;-82
2022/03/23 05:53:38;;;;;;;69.77;43.80;;;12.80;56.40;;;;;;10328438;28;20696;-82
2022/03/23 05:58:41;;;;;;;71.77;41.87;;;12.80;56.70;;;;;;10344761;28;20232;-82
2022/03/23 06:03:44;;;;;;;71.67;39.90;;;12.70;57.30;;;;;;10363098;28;20681;-82
2022/03/23 06:08:46;;;;;;;65.40;37.90;;;12.60;57.40;;;;;;10365809;28;20764;-82
2022/03/23 06:13:49;;;;;;;64.73;40.33;;;12.20;59.10;;;;;;10364603;28;20248;-82
2022/03/23 06:18:52;;;;;;;59.13;35.43;;;12.20;58.60;;;;;;10329291;28;20221;-82
2022/03/23 06:23:54;;;;;;;67.57;39.80;;;12.10;59.40;;;;;;10309792;28;20267;-82
2022/03/23 06:28:58;;;;;;;60.53;35.47;;;12.60;58.00;;;;;;10326337;28;20641;-81
2022/03/23 06:34:03;;;;;;;68.03;39.27;;;12.60;58.20;;;;;;10309291;28;20224;-83
2022/03/23 06:39:05;;;;;;;63.83;38.13;;;12.70;58.00;;;;;;10287241;28;20229;-84
2022/03/23 06:44:08;;;;;;;68.03;40.37;;;12.60;58.10;;;;;;10312580;28;20676;-83
2022/03/23 06:49:12;;;;;;;115.87;58.67;;;12.50;58.70;;;;;;10324318;28;20274;-81
2022/03/23 06:54:16;;;;;;;86.10;48.97;;;11.20;63.00;;;;;;10310227;28;20224;-82
2022/03/23 06:59:19;;;;;;;101.33;55.13;;;12.90;59.40;;;;;;10309529;28;20619;-82
2022/03/23 07:04:24;;;;;;;107.73;61.07;;;13.10;56.90;;;;;;10309287;28;20213;-82
2022/03/23 07:09:34;;;;;;;96.17;55.60;;;12.80;56.60;;;;;;10333802;28;20639;-82
2022/03/23 07:14:38;;;;;;;111.70;57.53;;;13.00;56.50;;;;;;10332717;28;20643;-83
2022/03/23 07:19:41;;;;;;;134.57;61.43;;;13.40;57.20;;;;;;10316144;28;20632;-84
2022/03/23 07:24:45;;;;;;;139.43;63.37;;;14.10;54.60;;;;;;10337751;28;20346;-85
2022/03/23 07:29:48;;;;;;;127.83;56.63;;;14.10;54.70;;;;;;10369707;28;20331;-88
2022/03/23 07:34:51;;;;;;;122.80;54.97;;;14.40;54.70;;;;;;10353887;28;20761;-88
2022/03/23 07:39:53;;;;;;;105.80;54.50;;;14.90;53.80;;;;;;10350186;28;20233;-84
2022/03/23 07:45:01;;;;;;;99.77;52.97;;;15.10;53.40;;;;;;10332378;28;20291;-85
2022/03/23 07:50:04;;;;;;;101.93;51.70;;;15.30;53.20;;;;;;10314179;28;20247;-84
2022/03/23 07:55:07;;;;;;;90.97;50.87;;;15.20;53.40;;;;;;10337335;28;20197;-87
2022/03/23 08:00:10;;;;;;;95.93;51.87;;;15.50;53.00;;;;;;10352824;28;20278;-87
2022/03/23 08:05:15;;;;;;;85.87;47.60;;;16.00;52.40;;;;;;10365646;28;20290;-87
2022/03/23 08:10:21;;;;;;;90.20;48.17;;;15.90;52.30;;;;;;10368278;28;20253;-86
2022/03/23 08:15:24;;;;;;;74.27;44.03;;;16.00;52.30;;;;;;10358650;28;20233;-84
2022/03/23 08:20:32;;;;;;;83.17;46.13;;;15.90;52.70;;;;;;10352981;28;20222;-84
2022/03/23 08:25:41;;;;;;;73.43;43.93;;;16.10;52.60;;;;;;10366605;28;20250;-84
2022/03/23 08:30:44;;;;;;;78.50;42.70;;;16.20;52.00;;;;;;10368141;28;20267;-84
2022/03/23 08:35:47;;;;;;;75.90;42.80;;;16.10;52.50;;;;;;10369452;28;20630;-84
2022/03/23 08:40:49;;;;;;;78.00;44.03;;;16.00;52.70;;;;;;10370062;28;20224;-84
2022/03/23 08:45:55;;;;;;;76.00;42.73;;;16.00;52.60;;;;;;10365130;28;20228;-85
2022/03/23 08:50:58;;;;;;;69.03;41.13;;;16.00;52.40;;;;;;10367070;28;20251;-85
2022/03/23 08:56:01;;;;;;;86.73;48.90;;;15.90;53.00;;;;;;10353905;28;20207;-82
2022/03/23 09:01:04;;;;;;;72.60;41.73;;;15.70;50.30;;;;;;10340121;28;20283;-83
2022/03/23 09:06:07;;;;;;;99.73;47.40;;;15.70;53.20;;;;;;10326922;28;20233;-81
2022/03/23 09:11:11;;;;;;;79.53;44.67;;;16.00;50.20;;;;;;10312674;28;20245;-81
2022/03/23 09:16:14;;;;;;;78.23;44.20;;;16.00;49.90;;;;;;10330340;28;20254;-81
2022/03/23 09:21:17;;;;;;;83.27;44.10;;;15.50;49.40;;;;;;10313026;28;20288;-81
2022/03/23 09:26:20;;;;;;;107.10;43.27;;;15.10;50.80;;;;;;10311035;28;20682;-86
2022/03/23 09:31:29;;;;;;;109.93;43.27;;;16.00;50.30;;;;;;10364180;28;20763;-86
2022/03/23 09:41:57;;;;;;;71.17;36.83;;;15.60;45.60;;;;;;10336733;23;20268;-81
2022/03/23 09:47:01;;;;;;;58.00;31.87;;;15.70;50.90;;;;;;10303276;28;20574;-81
2022/03/23 09:52:09;;;;;;;31.77;20.97;;;16.30;48.00;;;;;;10338779;28;20725;-81
2022/03/23 09:57:13;;;;;;;33.60;20.93;;;16.00;40.60;;;;;;10321166;28;20225;-81
2022/03/23 10:02:40;;;;;;;37.53;22.27;;;15.80;42.80;;;;;;10284841;28;20242;-81
2022/03/23 10:08:14;;;;;;;65.60;29.10;;;16.10;41.40;;;;;;10284986;28;20237;-81
2022/03/23 10:13:32;;;;;;;45.03;26.93;;;16.20;50.30;;;;;;10285319;28;20300;-81
2022/03/23 10:18:56;;;;;;;49.33;26.40;;;16.10;43.20;;;;;;10285387;28;20239;-80
2022/03/23 10:24:02;;;;;;;50.67;27.97;;;16.10;43.40;;;;;;10286394;28;20284;-81
2022/03/23 10:29:19;;;;;;;52.07;27.10;;;16.20;49.20;;;;;;10283409;28;20683;-81
2022/03/23 10:34:21;;;;;;;41.20;25.43;;;16.90;46.40;;;;;;10276014;28;20292;-81
2022/03/23 10:39:29;;;;;;;42.37;25.33;;;17.00;43.90;;;;;;10266820;28;20268;-82
2022/03/23 10:44:32;;;;;;;45.90;25.60;;;16.60;40.70;;;;;;10273576;28;20270;-82
2022/03/23 10:49:37;;;;;;;43.70;26.70;;;16.80;50.20;;;;;;10286307;28;20279;-82
2022/03/23 10:54:52;;;;;;;30.73;21.00;;;17.70;47.90;;;;;;10284791;28;20264;-82
2022/03/23 10:59:55;;;;;;;38.27;22.90;;;17.80;39.20;;;;;;10283967;28;20232;-82
2022/03/23 11:04:57;;;;;;;39.43;23.93;;;17.30;43.40;;;;;;10285207;28;20696;-82
2022/03/23 11:20:48;;;;;;;35.90;21.90;;;17.60;48.40;;;;;;10298973;28;20381;-82
2022/03/23 11:25:51;;;;;;;30.20;17.47;;;17.70;45.60;;;;;;10316872;28;20236;-82
2022/03/23 11:31:01;;;;;;;37.97;22.77;;;17.50;40.50;;;;;;10315037;28;20256;-82
2022/03/23 11:36:11;;;;;;;36.73;21.63;;;17.90;49.30;;;;;;10310004;28;20239;-82
2022/03/23 11:41:14;;;;;;;31.23;16.47;;;18.40;48.40;;;;;;10321319;28;20256;-81
2022/03/23 11:46:22;;;;;;;26.10;16.17;;;18.00;37.10;;;;;;10315505;28;20682;-81
2022/03/23 11:51:45;;;;;;;28.63;17.67;;;17.80;38.60;;;;;;10278355;28;20279;-82
2022/03/23 11:56:57;;;;;;;25.97;14.77;;;17.60;40.10;;;;;;10325065;28;20275;-82
2022/03/23 12:01:59;;;;;;;32.60;19.50;;;17.80;40.80;;;;;;10326554;28;20240;-81
2022/03/23 12:07:06;;;;;;;32.00;19.87;;;17.90;48.60;;;;;;10326437;28;20268;-81
2022/03/23 12:12:29;;;;;;;29.67;19.30;;;18.50;48.30;;;;;;10337521;28;20206;-81
2022/03/23 12:17:32;;;;;;;34.50;19.17;;;18.40;48.20;;;;;;10370664;28;20211;-81
2022/03/23 12:22:34;;;;;;;32.43;18.60;;;18.70;47.50;;;;;;10367369;28;20205;-80
2022/03/23 12:27:42;;;;;;;26.77;17.90;;;18.60;47.10;;;;;;10375246;28;20222;-80
2022/03/23 12:32:45;;;;;;;25.53;17.70;;;18.60;47.30;;;;;;10375413;28;20209;-80
2022/03/23 12:37:48;;;;;;;28.57;18.37;;;18.60;47.00;;;;;;10369374;28;20203;-79
2022/03/23 12:42:52;;;;;;;26.37;18.03;;;18.70;47.30;;;;;;10392510;28;20233;-81
2022/03/23 12:47:56;;;;;;;28.47;17.90;;;18.50;47.10;;;;;;10395058;28;20233;-81
2022/03/23 12:58:28;;;;;;;18.13;11.33;;;18.50;44.60;;;;;;10327351;28;20540;-81
2022/03/23 13:03:31;;;;;;;23.33;15.73;;;18.40;41.40;;;;;;10333835;28;20213;-81
2022/03/23 13:08:48;;;;;;;23.90;15.40;;;18.30;47.50;;;;;;10327067;28;20225;-81
2022/03/23 13:13:54;;;;;;;23.50;15.03;;;18.10;46.30;;;;;;10273811;28;20268;-81
2022/03/23 13:18:58;;;;;;;23.10;15.17;;;18.40;46.30;;;;;;10304324;28;20232;-81
2022/03/23 13:24:04;;;;;;;23.87;15.20;;;18.40;47.70;;;;;;10312556;28;20267;-80
2022/03/23 13:29:12;;;;;;;22.73;15.03;;;18.20;46.30;;;;;;10279189;28;20248;-80
2022/03/23 13:34:15;;;;;;;25.17;15.10;;;18.20;47.30;;;;;;10294456;28;20303;-81
2022/03/23 13:39:19;;;;;;;19.70;13.83;;;18.40;47.50;;;;;;10274488;28;20267;-81
2022/03/23 13:44:54;;;;;;;21.40;11.70;;;18.40;47.50;;;;;;10303471;28;20641;-81
2022/03/23 13:49:45;;;;;;;21.23;13.67;;;18.40;37.80;;;;;;10298999;28;20247;-81
2022/03/23 13:54:48;;;;;;;23.53;14.70;;;18.40;46.70;;;;;;10297002;28;20256;-81
2022/03/23 13:59:51;;;;;;;20.13;11.70;;;18.40;47.10;;;;;;10315039;28;20264;-81
2022/03/23 14:04:54;;;;;;;17.80;10.83;;;18.20;33.30;;;;;;10313112;28;20602;-81
2022/03/23 14:09:57;;;;;;;18.97;12.80;;;18.20;32.30;;;;;;10293168;28;20745;-81
2022/03/23 14:14:59;;;;;;;22.47;14.13;;;18.30;45.20;;;;;;10303626;28;20288;-81
2022/03/23 14:20:05;;;;;;;18.20;12.87;;;18.30;46.30;;;;;;10320921;28;20263;-81
2022/03/23 14:25:08;;;;;;;19.23;13.43;;;18.40;46.30;;;;;;10318179;28;20252;-81
2022/03/23 14:30:15;;;;;;;20.70;13.50;;;18.30;46.20;;;;;;10295164;28;20295;-81
2022/03/23 14:35:35;;;;;;;18.80;13.13;;;18.20;46.60;;;;;;10310758;28;20268;-81
2022/03/23 14:40:56;;;;;;;17.53;12.27;;;18.30;46.60;;;;;;10287098;28;20264;-81
2022/03/23 14:46:22;;;;;;;17.37;12.77;;;18.40;46.60;;;;;;10288922;28;20254;-80
2022/03/23 14:51:26;;;;;;;17.67;12.40;;;18.40;46.50;;;;;;10302091;28;20675;-81
2022/03/23 14:56:31;;;;;;;19.23;12.27;;;18.40;46.60;;;;;;10302414;28;20292;-80
2022/03/23 15:01:37;;;;;;;19.63;12.77;;;18.10;45.10;;;;;;10301174;28;20228;-81
2022/03/23 15:17:25;;;;;;;16.50;11.67;;;18.30;46.20;;;;;;10303429;28;20248;-85
2022/03/23 15:22:28;;;;;;;18.20;11.87;;;18.30;39.50;;;;;;10286305;28;20746;-81
2022/03/23 15:27:32;;;;;;;18.97;11.93;;;18.20;36.90;;;;;;10288196;28;20256;-81
2022/03/23 15:32:35;;;;;;;13.97;10.53;;;18.00;36.80;;;;;;10276652;28;20316;-81
2022/03/23 15:37:37;;;;;;;17.23;10.93;;;17.80;38.30;;;;;;10325124;28;20298;-82
2022/03/23 15:48:06;;;;;;;14.87;9.73;;;17.90;39.90;;;;;;10314309;28;21399;-81
2022/03/23 15:53:09;;;;;;;18.70;13.13;;;18.00;39.90;;;;;;10307108;28;20249;-81
2022/03/23 15:58:11;;;;;;;25.93;15.43;;;17.90;38.60;;;;;;10333588;28;20298;-81
2022/03/23 16:03:14;;;;;;;15.83;10.77;;;17.50;38.70;;;;;;10314229;28;20257;-81
2022/03/23 16:08:17;;;;;;;10.60;7.50;;;17.40;41.50;;;;;;10332200;28;20237;-81
2022/03/23 16:13:20;;;;;;;12.63;9.57;;;17.40;42.40;;;;;;10330917;28;20284;-81
2022/03/23 16:18:24;;;;;;;95.83;44.60;;;17.30;41.10;;;;;;10275816;28;20205;-81
2022/03/23 16:23:27;;;;;;;36.87;22.53;;;16.60;39.60;;;;;;10292261;28;20287;-81
2022/03/23 16:28:29;;;;;;;21.30;12.03;;;;;;;;;;10310895;28;20233;-81
2022/03/23 16:33:32;;;;;;;55.03;21.33;;;16.40;68.90;;;;;;10294782;28;20253;-81
2022/03/23 16:38:36;;;;;;;10.10;7.60;;;15.50;41.60;;;;;;10290541;28;20808;-81
2022/03/23 16:43:38;;;;;;;8.37;6.60;;;15.70;46.50;;;;;;9967155;28;10000206;-81
2022/03/23 16:48:41;;;;;;;8.30;6.47;;;16.00;46.40;;;;;;10313012;28;20236;-81
2022/03/23 16:53:43;;;;;;;7.50;6.43;;;;;;;;;;10313420;28;20324;-81
2022/03/23 16:58:49;;;;;;;21.27;8.57;;;;;;;;;;10317193;28;20291;-81
2022/03/23 17:14:35;;;;;;;42.47;17.30;;;13.90;48.00;;;;;;10299593;28;20262;-81
2022/03/23 17:19:39;;;;;;;38.40;21.57;;;13.20;47.90;;;;;;10292477;28;20295;-81
2022/03/23 17:24:41;;;;;;;41.27;22.47;;;12.60;48.60;;;;;;10291193;28;20241;-81
2022/03/23 17:29:44;;;;;;;37.50;22.53;;;12.20;50.10;;;;;;10267248;28;20240;-81
2022/03/23 17:34:50;;;;;;;36.10;20.70;;;11.90;50.60;;;;;;10268130;28;20253;-81
2022/03/23 17:39:53;;;;;;;12.80;8.97;;;11.70;51.40;;;;;;10286934;28;20257;-81
2022/03/23 17:44:56;;;;;;;9.73;7.43;;;12.00;54.60;;;;;;10303797;28;20233;-81
2022/03/23 17:49:58;;;;;;;23.00;13.77;;;12.40;54.80;;;;;;10284667;28;20229;-81
2022/03/23 17:55:01;;;;;;;14.13;9.10;;;12.60;54.40;;;;;;10269257;28;20280;-81
2022/03/23 18:00:05;;;;;;;29.03;17.43;;;13.80;58.10;;;;;;10297718;28;20656;-81
2022/03/23 18:05:12;;;;;;;27.80;17.27;;;13.50;53.90;;;;;;10303955;28;20768;-81
2022/03/23 18:10:15;;;;;;;35.87;18.77;;;12.80;54.50;;;;;;10304197;28;20656;-81
2022/03/23 18:15:17;;;;;;;24.27;14.13;;;12.50;55.00;;;;;;10295912;28;20648;-81
2022/03/23 18:20:20;;;;;;;22.80;12.33;;;12.40;56.30;;;;;;10331385;28;20649;-82
2022/03/23 18:25:24;;;;;;;55.43;21.83;;;12.70;56.20;;;;;;10343878;28;20548;-83
2022/03/23 18:30:27;;;;;;;54.70;19.23;;;12.80;55.60;;;;;;10338258;28;20227;-82
2022/03/23 18:35:30;;;;;;;26.73;14.07;;;12.70;56.20;;;;;;10352945;28;20298;-82
2022/03/23 18:40:33;;;;;;;26.00;16.47;;;12.70;56.10;;;;;;10353202;28;20280;-82
2022/03/23 18:45:36;;;;;;;28.20;13.50;;;12.90;56.30;;;;;;10328541;28;20235;-83
2022/03/23 18:50:39;;;;;;;17.60;10.97;;;12.50;58.60;;;;;;10319834;28;20225;-82
2022/03/23 18:55:41;;;;;;;52.20;23.10;;;12.70;57.70;;;;;;10298738;28;20670;-82
2022/03/23 19:00:46;;;;;;;30.60;13.97;;;12.90;57.10;;;;;;10269890;28;20274;-83
2022/03/23 19:05:50;;;;;;;51.83;29.60;;;13.00;56.70;;;;;;10293598;28;20237;-82
2022/03/23 19:10:52;;;;;;;109.83;50.43;;;8.90;57.60;;;;;;10304642;28;20295;-82
2022/03/23 19:15:55;;;;;;;98.67;44.23;;;7.40;64.10;;;;;;10317465;28;20644;-82
2022/03/23 19:20:58;;;;;;;121.20;45.53;;;7.40;62.80;;;;;;10306767;28;20272;-82
2022/03/23 19:26:00;;;;;;;109.30;44.57;;;7.00;65.80;;;;;;10314562;28;20293;-82
2022/03/23 19:31:03;;;;;;;81.80;36.57;;;6.40;68.50;;;;;;10272187;28;20248;-81
2022/03/23 19:36:06;;;;;;;35.33;19.63;;;5.80;71.50;;;;;;10293303;28;20663;-82
2022/03/23 19:41:08;;;;;;;28.50;15.73;;;6.00;85.20;;;;;;10305104;28;20253;-82
2022/03/23 19:46:11;;;;;;;29.53;17.33;;;7.60;96.70;;;;;;10314026;28;20230;-82
2022/03/23 19:51:14;;;;;;;35.13;18.10;;;8.40;81.00;;;;;;10292119;28;20602;-82
2022/03/23 19:56:16;;;;;;;41.87;19.30;;;8.40;63.90;;;;;;10306051;28;20256;-82
2022/03/23 20:01:19;;;;;;;34.37;20.77;;;8.80;63.50;;;;;;10275996;28;20290;-82
2022/03/23 20:06:23;;;;;;;33.03;20.03;;;9.10;67.60;;;;;;10299598;28;20240;-82
2022/03/23 20:11:26;;;;;;;33.67;19.20;;;9.60;60.70;;;;;;10304355;28;20238;-82
2022/03/23 20:16:28;;;;;;;42.10;22.63;;;10.20;65.10;;;;;;10289703;28;20307;-82
2022/03/23 20:21:33;;;;;;;41.20;23.57;;;9.60;62.10;;;;;;10277060;28;20264;-82
2022/03/23 20:26:35;;;;;;;34.17;17.90;;;9.60;59.20;;;;;;10283338;28;20307;-82
2022/03/23 20:31:40;;;;;;;34.30;18.47;;;10.00;70.00;;;;;;10306390;28;20255;-82
2022/03/23 20:36:43;;;;;;;40.63;21.70;;;10.20;70.30;;;;;;10312229;28;20693;-82
2022/03/23 20:41:46;;;;;;;27.97;15.00;;;9.80;64.60;;;;;;10320530;28;20249;-82
2022/03/23 20:46:48;;;;;;;44.30;24.10;;;10.70;75.90;;;;;;10282279;28;20228;-82
2022/03/23 20:51:51;;;;;;;46.17;26.17;;;11.00;58.90;;;;;;10298201;28;20678;-82
2022/03/23 20:56:53;;;;;;;24.57;14.40;;;11.30;56.70;;;;;;10301035;28;20298;-82
2022/03/23 21:01:56;;;;;;;55.63;22.10;;;12.00;71.10;;;;;;10279925;28;20221;-82
2022/03/23 21:07:00;;;;;;;48.73;28.87;;;12.40;60.90;;;;;;10300607;28;20233;-82
2022/03/23 21:12:10;;;;;;;24.37;16.10;;;11.80;56.80;;;;;;10279621;28;20256;-82
2022/03/23 21:17:15;;;;;;;43.73;22.57;;;12.20;69.20;;;;;;10296665;28;20252;-82
2022/03/23 21:22:17;;;;;;;23.70;12.90;;;12.40;60.80;;;;;;10326721;28;20287;-82
2022/03/23 21:27:24;;;;;;;41.97;23.37;;;13.60;63.90;;;;;;10352584;28;20692;-82
2022/03/23 21:32:27;;;;;;;20.90;12.90;;;13.70;64.00;;;;;;10292240;28;20295;-82
2022/03/23 21:37:30;;;;;;;40.53;23.87;;;13.80;65.50;;;;;;10303388;28;20646;-82
2022/03/23 21:42:35;;;;;;;54.67;31.33;;;13.30;61.70;;;;;;10355391;28;20717;-82
2022/03/23 21:47:42;;;;;;;34.27;20.20;;;10.90;61.10;;;;;;10351899;28;20228;-82
2022/03/23 21:52:45;;;;;;;26.77;15.33;;;10.60;71.50;;;;;;10354930;28;20232;-82
2022/03/23 21:57:52;;;;;;;43.03;23.73;;;11.40;69.40;;;;;;10343229;28;20295;-82
2022/03/23 22:02:55;;;;;;;42.83;24.17;;;11.70;67.60;;;;;;10356127;28;20647;-82
2022/03/23 22:07:57;;;;;;;40.77;22.37;;;11.90;65.90;;;;;;10330087;28;20232;-82
2022/03/23 22:13:00;;;;;;;40.77;21.10;;;12.00;67.20;;;;;;10315646;28;20387;-82
2022/03/23 22:18:02;;;;;;;32.50;19.80;;;12.60;65.10;;;;;;10358741;28;20224;-82
2022/03/23 22:23:08;;;;;;;21.50;14.10;;;12.50;64.80;;;;;;10359011;28;20681;-82
2022/03/23 22:28:10;;;;;;;19.53;12.27;;;12.60;67.10;;;;;;10340428;28;20285;-83
2022/03/23 22:33:12;;;;;;;31.73;19.83;;;13.00;67.00;;;;;;10327681;28;20240;-82
2022/03/23 22:38:15;;;;;;;34.03;21.67;;;13.00;62.60;;;;;;10324875;28;20261;-82
2022/03/23 22:43:18;;;;;;;38.17;21.27;;;12.80;64.30;;;;;;10307292;28;20208;-83
2022/03/23 22:48:21;;;;;;;39.77;21.60;;;12.20;65.50;;;;;;10308866;28;20288;-82
2022/03/23 22:53:24;;;;;;;29.60;18.93;;;12.00;66.70;;;;;;10314069;28;20258;-83
2022/03/23 22:58:26;;;;;;;45.77;27.63;;;11.70;69.10;;;;;;10303587;28;20221;-82
2022/03/23 23:03:29;;;;;;;38.43;22.83;;;11.60;66.30;;;;;;10327908;28;20228;-82
2022/03/23 23:08:32;;;;;;;36.00;20.93;;;11.90;68.40;;;;;;10310018;28;20208;-83
2022/03/23 23:13:36;;;;;;;22.50;15.27;;;11.90;67.90;;;;;;10325383;28;20721;-82
2022/03/23 23:18:38;;;;;;;39.13;23.80;;;12.20;66.80;;;;;;10307978;28;20256;-83
2022/03/23 23:23:41;;;;;;;36.40;21.37;;;12.00;65.10;;;;;;10366895;28;20284;-83
2022/03/23 23:28:46;;;;;;;18.03;12.23;;;11.80;66.70;;;;;;10367586;28;20231;-83
2022/03/23 23:33:49;;;;;;;38.00;24.00;;;11.90;69.20;;;;;;10329583;28;20712;-83
2022/03/23 23:38:52;;;;;;;23.97;15.30;;;11.60;67.60;;;;;;10324697;28;20252;-83
2022/03/23 23:43:54;;;;;;;29.73;16.33;;;11.70;68.20;;;;;;10326623;28;20225;-83
2022/03/23 23:48:57;;;;;;;18.57;12.57;;;11.90;68.40;;;;;;10328275;28;20232;-83
2022/03/23 23:53:59;;;;;;;36.77;22.87;;;11.90;68.40;;;;;;10296032;28;20292;-83
2022/03/23 23:59:02;;;;;;;35.00;21.13;;;11.40;67.70;;;;;;10280473;28;20229;-83
